createdAt,value
2022-08-29T00:01:25.217Z,64.71
2022-08-29T00:03:55.566Z,64.51
2022-08-29T00:06:23.683Z,64.61
2022-08-29T00:08:51.495Z,64.72
2022-08-29T00:11:19.274Z,64.68
2022-08-29T00:13:47.247Z,64.98
2022-08-29T00:16:16.283Z,64.70
2022-08-29T00:18:44.093Z,64.65
2022-08-29T00:21:11.829Z,64.91
2022-08-29T00:23:40.440Z,64.85
2022-08-29T00:26:08.763Z,65.23
2022-08-29T00:28:36.543Z,64.84
2022-08-29T00:31:04.420Z,65.14
2022-08-29T00:33:33.516Z,65.21
2022-08-29T00:36:02.897Z,65.70
2022-08-29T00:38:32.001Z,65.44
2022-08-29T00:40:59.852Z,65.97
2022-08-29T00:43:29.804Z,65.54
2022-08-29T00:46:06.520Z,65.88
2022-08-29T00:48:38.204Z,66.15
2022-08-29T00:51:09.416Z,66.00
2022-08-29T00:53:40.886Z,66.06
2022-08-29T00:56:09.774Z,66.55
2022-08-29T00:58:42.179Z,66.58
2022-08-29T01:01:10.866Z,66.38
2022-08-29T01:03:42.736Z,66.86
2022-08-29T01:06:12.840Z,66.58
2022-08-29T01:08:40.858Z,66.61
2022-08-29T01:11:26.428Z,66.61
2022-08-29T01:13:54.982Z,67.02
2022-08-29T01:16:24.110Z,66.91
2022-08-29T01:18:56.733Z,67.24
2022-08-29T01:21:30.803Z,67.25
2022-08-29T01:24:02.603Z,67.42
2022-08-29T01:26:32.564Z,67.66
2022-08-29T01:29:00.388Z,67.62
2022-08-29T01:31:55.595Z,67.78
2022-08-29T01:34:19.378Z,67.53
2022-08-29T01:36:50.402Z,68.09
2022-08-29T01:39:18.745Z,68.14
2022-08-29T01:41:47.884Z,67.95
2022-08-29T01:44:19.512Z,68.25
2022-08-29T01:46:48.594Z,67.94
2022-08-29T01:49:18.084Z,67.95
2022-08-29T01:51:45.847Z,67.62
2022-08-29T01:54:14.368Z,68.00
2022-08-29T01:56:44.294Z,68.17
2022-08-29T01:59:16.475Z,68.26
2022-08-29T02:01:47.815Z,67.96
2022-08-29T02:04:15.678Z,68.25
2022-08-29T02:06:44.933Z,68.74
2022-08-29T02:09:13.007Z,68.58
2022-08-29T02:11:40.792Z,68.32
2022-08-29T02:14:16.189Z,68.65
2022-08-29T02:16:48.927Z,68.51
2022-08-29T02:19:17.568Z,68.44
2022-08-29T02:21:45.403Z,68.61
2022-08-29T02:24:28.391Z,68.34
2022-08-29T02:26:56.851Z,68.42
2022-08-29T02:29:25.326Z,68.60
2022-08-29T02:31:54.948Z,68.59
2022-08-29T02:34:23.198Z,68.61
2022-08-29T02:36:51.428Z,68.92
2022-08-29T02:39:19.369Z,69.00
2022-08-29T02:41:47.035Z,69.06
2022-08-29T02:44:15.089Z,69.53
2022-08-29T02:46:42.838Z,69.27
2022-08-29T02:49:11.849Z,69.49
2022-08-29T02:51:39.471Z,69.67
2022-08-29T02:54:07.242Z,69.74
2022-08-29T02:56:34.953Z,69.49
2022-08-29T02:59:02.702Z,69.23
2022-08-29T03:01:31.255Z,69.71
2022-08-29T03:03:59.287Z,69.86
2022-08-29T03:06:28.335Z,69.58
2022-08-29T03:08:56.374Z,69.45
2022-08-29T03:11:24.561Z,69.60
2022-08-29T03:13:52.355Z,69.71
2022-08-29T03:16:25.495Z,69.66
2022-08-29T03:18:53.287Z,70.05
2022-08-29T03:21:24.893Z,70.26
2022-08-29T03:23:55.256Z,70.31
2022-08-29T03:26:23.641Z,70.60
2022-08-29T03:28:51.311Z,70.85
2022-08-29T03:31:19.171Z,70.98
2022-08-29T03:33:46.846Z,71.18
2022-08-29T03:36:15.023Z,71.72
2022-08-29T03:38:43.347Z,71.66
2022-08-29T03:41:12.698Z,71.75
2022-08-29T03:43:40.342Z,71.87
2022-08-29T03:46:08.085Z,71.43
2022-08-29T03:48:35.918Z,71.12
2022-08-29T03:51:03.896Z,71.51
2022-08-29T03:53:33.059Z,72.03
2022-08-29T03:56:00.955Z,71.91
2022-08-29T03:58:29.997Z,71.89
2022-08-29T04:00:58.823Z,72.35
2022-08-29T04:03:31.514Z,72.17
2022-08-29T04:05:59.719Z,71.96
2022-08-29T04:08:27.448Z,72.46
2022-08-29T04:10:55.136Z,72.33
2022-08-29T04:13:22.866Z,72.61
2022-08-29T04:15:52.020Z,72.68
2022-08-29T04:18:21.553Z,72.52
2022-08-29T04:20:50.133Z,72.65
2022-08-29T04:23:17.888Z,72.80
2022-08-29T04:25:45.750Z,72.71
2022-08-29T04:28:15.068Z,72.88
2022-08-29T04:30:51.865Z,73.16
2022-08-29T04:33:26.458Z,73.38
2022-08-29T04:35:54.276Z,73.34
2022-08-29T04:38:21.975Z,73.37
2022-08-29T04:40:49.958Z,74.12
2022-08-29T04:43:17.745Z,73.87
2022-08-29T04:45:45.377Z,73.87
2022-08-29T04:48:13.067Z,73.38
2022-08-29T04:50:42.251Z,73.36
2022-08-29T04:53:09.922Z,72.98
2022-08-29T04:55:37.582Z,72.86
2022-08-29T04:58:06.363Z,72.87
2022-08-29T05:00:38.408Z,72.55
2022-08-29T05:03:07.662Z,72.56
2022-08-29T05:05:35.388Z,72.38
2022-08-29T05:08:05.044Z,72.02
2022-08-29T05:10:32.845Z,71.90
2022-08-29T05:13:00.589Z,71.71
2022-08-29T05:15:28.415Z,71.59
2022-08-29T05:17:56.648Z,70.93
2022-08-29T05:20:24.311Z,70.96
2022-08-29T05:22:52.122Z,71.34
2022-08-29T05:25:21.635Z,70.96
2022-08-29T05:27:49.508Z,70.75
2022-08-29T05:30:34.717Z,71.14
2022-08-29T05:33:03.031Z,70.83
2022-08-29T05:35:30.723Z,71.16
2022-08-29T05:37:58.526Z,71.09
2022-08-29T05:40:27.678Z,71.11
2022-08-29T05:42:55.472Z,70.68
2022-08-29T05:45:23.354Z,70.68
2022-08-29T05:47:51.022Z,69.97
2022-08-29T05:50:18.721Z,69.85
2022-08-29T05:52:46.729Z,69.64
2022-08-29T05:55:14.394Z,69.91
2022-08-29T05:57:43.401Z,69.69
2022-08-29T06:00:12.807Z,69.13
2022-08-29T06:02:40.953Z,69.21
2022-08-29T06:05:09.273Z,69.14
2022-08-29T06:07:38.519Z,68.79
2022-08-29T06:10:08.829Z,68.95
2022-08-29T06:12:37.263Z,68.27
2022-08-29T06:15:07.692Z,68.83
2022-08-29T06:17:37.587Z,68.64
2022-08-29T06:20:09.671Z,68.37
2022-08-29T06:22:40.388Z,68.13
2022-08-29T06:25:28.326Z,67.54
2022-08-29T06:27:57.511Z,67.69
2022-08-29T06:30:26.626Z,67.21
2022-08-29T06:32:54.679Z,67.40
2022-08-29T06:35:22.444Z,67.24
2022-08-29T06:37:50.254Z,67.53
2022-08-29T06:40:18.019Z,67.74
2022-08-29T06:42:45.949Z,68.02
2022-08-29T06:45:13.613Z,67.22
2022-08-29T06:47:43.321Z,67.60
2022-08-29T06:50:11.290Z,67.39
2022-08-29T06:52:39.068Z,66.83
2022-08-29T06:55:11.691Z,66.50
2022-08-29T06:57:42.924Z,66.59
2022-08-29T07:00:21.425Z,66.09
2022-08-29T07:02:52.838Z,66.16
2022-08-29T07:05:21.647Z,65.77
2022-08-29T07:07:52.456Z,66.18
2022-08-29T07:10:22.792Z,65.99
2022-08-29T07:12:51.179Z,65.06
2022-08-29T07:15:19.421Z,64.93
2022-08-29T07:17:47.338Z,64.87
2022-08-29T07:20:17.104Z,64.16
2022-08-29T07:22:45.396Z,64.62
2022-08-29T07:25:13.065Z,64.26
2022-08-29T07:27:40.664Z,64.04
2022-08-29T07:30:09.418Z,63.87
2022-08-29T07:32:37.361Z,63.32
2022-08-29T07:35:05.452Z,63.57
2022-08-29T07:37:34.695Z,63.91
2022-08-29T07:40:02.816Z,63.78
2022-08-29T07:42:30.602Z,63.79
2022-08-29T07:44:59.626Z,63.01
2022-08-29T07:47:28.818Z,62.86
2022-08-29T07:49:56.733Z,62.26
2022-08-29T07:52:24.573Z,62.66
2022-08-29T07:54:53.553Z,62.18
2022-08-29T07:57:21.220Z,61.38
2022-08-29T07:59:49.433Z,61.17
2022-08-29T08:02:17.538Z,60.86
2022-08-29T08:04:45.231Z,61.32
2022-08-29T08:07:14.035Z,61.32
2022-08-29T08:09:42.567Z,61.32
2022-08-29T08:12:11.616Z,61.39
2022-08-29T08:14:39.388Z,61.93
2022-08-29T08:17:07.144Z,61.30
2022-08-29T08:19:35.219Z,61.07
2022-08-29T08:22:02.910Z,60.81
2022-08-29T08:24:30.597Z,60.58
2022-08-29T08:26:58.460Z,60.26
2022-08-29T08:29:27.502Z,60.65
2022-08-29T08:31:59.839Z,60.76
2022-08-29T08:34:29.358Z,59.88
2022-08-29T08:36:57.623Z,59.84
2022-08-29T08:39:25.280Z,59.15
2022-08-29T08:41:57.300Z,59.30
2022-08-29T08:44:59.597Z,59.11
2022-08-29T08:47:31.323Z,59.90
2022-08-29T08:50:03.137Z,59.27
2022-08-29T08:52:38.395Z,58.59
2022-08-29T08:55:10.912Z,58.35
2022-08-29T08:57:41.509Z,58.13
2022-08-29T09:00:13.037Z,58.24
2022-08-29T09:02:49.211Z,58.22
2022-08-29T09:05:29.721Z,58.52
2022-08-29T09:08:01.788Z,57.59
2022-08-29T09:10:38.781Z,57.76
2022-08-29T09:13:15.150Z,57.95
2022-08-29T09:15:46.208Z,58.07
2022-08-29T09:18:24.629Z,57.30
2022-08-29T09:20:52.338Z,56.25
2022-08-29T09:23:23.324Z,57.37
2022-08-29T09:25:51.941Z,56.63
2022-08-29T09:28:19.655Z,56.00
2022-08-29T09:31:18.022Z,56.08
2022-08-29T09:33:49.898Z,56.04
2022-08-29T09:36:36.637Z,54.90
2022-08-29T09:39:22.434Z,54.95
2022-08-29T09:41:52.241Z,54.42
2022-08-29T09:44:23.086Z,54.27
2022-08-29T09:47:08.688Z,54.16
2022-08-29T09:49:37.340Z,55.78
2022-08-29T09:52:14.478Z,55.44
2022-08-29T09:54:42.991Z,54.94
2022-08-29T09:57:14.794Z,54.16
2022-08-29T09:59:45.294Z,54.58
2022-08-29T10:02:20.589Z,53.90
2022-08-29T10:04:50.759Z,54.21
2022-08-29T10:07:21.694Z,53.99
2022-08-29T10:10:00.259Z,54.31
2022-08-29T10:12:34.374Z,54.37
2022-08-29T10:15:04.819Z,54.54
2022-08-29T10:17:56.663Z,53.93
2022-08-29T10:20:28.407Z,53.58
2022-08-29T10:23:00.998Z,54.13
2022-08-29T10:25:36.645Z,53.25
2022-08-29T10:28:07.633Z,53.16
2022-08-29T10:30:41.285Z,53.21
2022-08-29T10:33:20.640Z,53.35
2022-08-29T10:35:54.872Z,52.38
2022-08-29T10:38:34.284Z,52.94
2022-08-29T10:41:04.849Z,52.57
2022-08-29T10:43:38.995Z,53.12
2022-08-29T10:46:32.841Z,52.05
2022-08-29T10:49:04.886Z,51.26
2022-08-29T10:51:37.215Z,51.01
2022-08-29T10:54:09.955Z,50.86
2022-08-29T10:56:40.563Z,50.44
2022-08-29T10:59:13.408Z,50.61
2022-08-29T11:01:44.639Z,50.55
2022-08-29T11:04:19.016Z,50.28
2022-08-29T11:06:51.639Z,50.67
2022-08-29T11:09:23.006Z,50.73
2022-08-29T11:12:04.946Z,49.40
2022-08-29T11:14:36.591Z,49.82
2022-08-29T11:17:05.471Z,49.72
2022-08-29T11:19:42.467Z,50.03
2022-08-29T11:22:15.321Z,49.61
2022-08-29T11:24:47.092Z,48.77
2022-08-29T11:27:23.150Z,48.75
2022-08-29T11:29:57.832Z,48.68
2022-08-29T11:32:31.151Z,48.48
2022-08-29T11:35:12.568Z,48.63
2022-08-29T11:37:57.820Z,48.20
2022-08-29T11:43:30.512Z,48.11
2022-08-29T11:46:00.261Z,48.07
2022-08-29T11:48:34.599Z,47.27
2022-08-29T11:51:36.123Z,47.42
2022-08-29T11:54:49.652Z,47.10
2022-08-29T11:57:46.913Z,47.39
2022-08-29T12:00:27.393Z,47.23
2022-08-29T12:02:55.146Z,47.53
2022-08-29T12:05:52.264Z,47.26
2022-08-29T12:08:37.312Z,47.13
2022-08-29T12:11:06.541Z,46.78
2022-08-29T12:14:04.783Z,46.12
2022-08-29T12:16:48.751Z,46.96
2022-08-29T12:19:48.086Z,46.44
2022-08-29T12:22:55.183Z,46.40
2022-08-29T12:25:48.053Z,46.99
2022-08-29T12:28:39.085Z,46.59
2022-08-29T12:31:19.682Z,46.46
2022-08-29T12:34:03.677Z,46.06
2022-08-29T12:36:40.884Z,46.70
2022-08-29T12:39:39.934Z,45.87
2022-08-29T12:42:20.646Z,46.22
2022-08-29T12:44:58.749Z,45.96
2022-08-29T12:47:28.493Z,45.65
2022-08-29T12:49:58.365Z,45.71
2022-08-29T12:52:32.088Z,45.29
2022-08-29T12:55:03.065Z,46.00
2022-08-29T12:57:36.811Z,45.30
2022-08-29T13:00:11.503Z,46.24
2022-08-29T13:02:39.623Z,46.10
2022-08-29T13:05:26.942Z,45.59
2022-08-29T13:07:58.848Z,45.71
2022-08-29T13:10:27.711Z,46.18
2022-08-29T13:13:07.897Z,45.48
2022-08-29T13:15:35.951Z,45.92
2022-08-29T13:18:03.828Z,45.60
2022-08-29T13:20:46.960Z,45.31
2022-08-29T13:23:20.732Z,45.89
2022-08-29T13:25:51.554Z,45.19
2022-08-29T13:28:25.435Z,45.91
2022-08-29T13:31:22.349Z,45.13
2022-08-29T13:34:13.640Z,45.46
2022-08-29T13:36:45.504Z,45.01
2022-08-29T13:39:26.551Z,44.88
2022-08-29T13:42:10.096Z,44.58
2022-08-29T13:44:52.704Z,44.39
2022-08-29T13:47:22.629Z,44.05
2022-08-29T13:49:51.029Z,44.71
2022-08-29T13:52:19.362Z,44.89
2022-08-29T13:54:46.990Z,44.63
2022-08-29T13:57:16.845Z,44.59
2022-08-29T13:59:46.029Z,44.58
2022-08-29T14:02:14.770Z,44.90
2022-08-29T14:04:44.363Z,44.60
2022-08-29T14:07:16.720Z,44.89
2022-08-29T14:09:46.078Z,43.91
2022-08-29T14:12:14.357Z,44.89
2022-08-29T14:14:42.505Z,44.82
2022-08-29T14:17:14.290Z,44.41
2022-08-29T14:19:46.766Z,44.09
2022-08-29T14:22:14.941Z,43.83
2022-08-29T14:24:43.319Z,44.71
2022-08-29T14:27:11.292Z,45.00
2022-08-29T14:29:40.706Z,44.86
2022-08-29T14:32:08.383Z,44.61
2022-08-29T14:34:39.128Z,44.86
2022-08-29T14:37:08.029Z,44.73
2022-08-29T14:39:36.157Z,44.42
2022-08-29T14:42:04.777Z,44.82
2022-08-29T14:44:33.306Z,44.94
2022-08-29T14:47:01.894Z,44.80
2022-08-29T14:49:30.535Z,44.20
2022-08-29T14:52:00.662Z,44.41
2022-08-29T14:54:29.114Z,44.75
2022-08-29T14:56:57.590Z,45.03
2022-08-29T14:59:30.954Z,44.68
2022-08-29T15:01:58.955Z,44.65
2022-08-29T15:04:35.095Z,44.77
2022-08-29T15:07:08.510Z,44.52
2022-08-29T15:09:37.031Z,44.52
2022-08-29T15:12:05.494Z,44.57
2022-08-29T15:14:34.422Z,44.33
2022-08-29T15:17:03.009Z,45.01
2022-08-29T15:22:22.249Z,44.50
2022-08-29T15:24:51.132Z,44.40
2022-08-29T15:27:21.583Z,44.13
2022-08-29T15:29:51.599Z,44.33
2022-08-29T15:32:20.485Z,44.67
2022-08-29T15:34:48.311Z,44.07
2022-08-29T15:37:16.332Z,44.18
2022-08-29T15:39:45.479Z,44.66
2022-08-29T15:42:17.337Z,44.26
2022-08-29T15:44:45.456Z,44.12
2022-08-29T15:47:13.232Z,44.39
2022-08-29T15:49:42.112Z,44.50
2022-08-29T15:52:11.995Z,44.45
2022-08-29T15:54:41.628Z,44.51
2022-08-29T15:57:10.806Z,44.80
2022-08-29T15:59:57.259Z,44.57
2022-08-29T16:02:26.415Z,44.35
2022-08-29T16:04:57.177Z,44.36
2022-08-29T16:07:29.159Z,44.79
2022-08-29T16:12:26.075Z,44.09
2022-08-29T16:15:02.360Z,44.42
2022-08-29T16:17:31.631Z,44.86
2022-08-29T16:20:06.542Z,44.87
2022-08-29T16:22:35.169Z,44.80
2022-08-29T16:25:02.918Z,44.47
2022-08-29T16:27:32.030Z,44.37
2022-08-29T16:30:00.026Z,44.06
2022-08-29T16:32:28.026Z,44.72
2022-08-29T16:34:58.554Z,45.29
2022-08-29T16:37:26.739Z,45.31
2022-08-29T16:39:54.877Z,45.50
2022-08-29T16:42:25.570Z,45.10
2022-08-29T16:44:56.754Z,44.89
2022-08-29T16:47:24.483Z,44.81
2022-08-29T16:49:55.829Z,44.93
2022-08-29T16:52:23.759Z,44.94
2022-08-29T16:54:53.627Z,44.72
2022-08-29T16:57:21.643Z,44.86
2022-08-29T16:59:49.647Z,44.51
2022-08-29T17:02:19.092Z,44.94
2022-08-29T17:04:48.852Z,45.50
2022-08-29T17:07:16.875Z,45.97
2022-08-29T17:09:43.647Z,45.95
2022-08-29T17:12:10.258Z,45.72
2022-08-29T17:14:36.898Z,46.21
2022-08-29T17:17:04.852Z,46.33
2022-08-29T17:19:34.156Z,46.43
2022-08-29T17:22:02.068Z,46.29
2022-08-29T17:24:29.937Z,46.70
2022-08-29T17:26:57.983Z,47.16
2022-08-29T17:29:25.944Z,46.58
2022-08-29T17:31:53.886Z,46.81
2022-08-29T17:34:21.765Z,46.80
2022-08-29T17:36:50.776Z,47.33
2022-08-29T17:39:20.031Z,47.03
2022-08-29T17:41:50.527Z,47.18
2022-08-29T17:44:18.949Z,47.24
2022-08-29T17:46:46.594Z,47.56
2022-08-29T17:49:14.273Z,47.63
2022-08-29T17:51:42.128Z,48.20
2022-08-29T17:54:12.549Z,48.49
2022-08-29T17:56:45.044Z,48.02
2022-08-29T17:59:13.253Z,48.59
2022-08-29T18:01:41.190Z,48.94
2022-08-29T18:04:09.339Z,48.92
2022-08-29T18:06:37.125Z,49.08
2022-08-29T18:09:04.887Z,49.84
2022-08-29T18:11:34.262Z,49.47
2022-08-29T18:14:02.051Z,49.90
2022-08-29T18:16:29.911Z,49.44
2022-08-29T18:18:57.637Z,49.55
2022-08-29T18:21:25.936Z,50.17
2022-08-29T18:23:53.819Z,50.33
2022-08-29T18:26:21.679Z,50.19
2022-08-29T18:28:50.770Z,50.27
2022-08-29T18:31:19.626Z,50.27
2022-08-29T18:34:00.201Z,50.80
2022-08-29T18:36:29.281Z,50.63
2022-08-29T18:38:56.970Z,50.59
2022-08-29T18:41:24.717Z,51.28
2022-08-29T18:43:53.797Z,50.86
2022-08-29T18:46:22.086Z,50.71
2022-08-29T18:48:51.801Z,51.16
2022-08-29T18:51:20.192Z,51.52
2022-08-29T18:53:48.409Z,50.95
2022-08-29T18:56:16.420Z,51.05
2022-08-29T18:58:45.222Z,51.42
2022-08-29T19:01:15.340Z,51.48
2022-08-29T19:06:41.276Z,51.54
2022-08-29T19:11:59.886Z,51.94
2022-08-29T19:25:25.854Z,52.62
2022-08-29T19:30:20.884Z,52.69
2022-08-29T19:32:48.939Z,52.77
2022-08-29T19:43:13.874Z,54.44
2022-08-29T19:51:07.879Z,53.92
2022-08-29T19:58:53.859Z,54.27
2022-08-29T20:01:23.045Z,54.41
2022-08-29T20:06:17.990Z,54.26
2022-08-29T20:11:43.623Z,54.31
2022-08-29T20:14:11.735Z,53.97
2022-08-29T20:16:43.873Z,54.09
2022-08-29T20:19:12.229Z,54.08
2022-08-29T20:21:40.948Z,54.28
2022-08-29T20:24:08.780Z,54.56
2022-08-29T20:26:37.536Z,54.43
2022-08-29T20:29:07.407Z,54.03
2022-08-29T20:31:35.741Z,53.93
2022-08-29T20:34:05.133Z,53.55
2022-08-29T20:36:50.582Z,53.81
2022-08-29T20:39:19.713Z,53.89
2022-08-29T20:41:51.833Z,53.75
2022-08-29T20:44:20.480Z,53.87
2022-08-29T20:46:48.668Z,53.70
2022-08-29T20:49:24.885Z,53.71
2022-08-29T20:51:52.872Z,53.24
2022-08-29T20:54:23.317Z,53.57
2022-08-29T20:56:51.455Z,53.54
2022-08-29T20:59:19.215Z,53.68
2022-08-29T21:01:47.854Z,54.11
2022-08-29T21:04:35.071Z,54.46
2022-08-29T21:07:05.748Z,54.56
2022-08-29T21:09:33.852Z,54.72
2022-08-29T21:12:01.656Z,55.19
2022-08-29T21:14:29.582Z,55.35
2022-08-29T21:16:58.297Z,55.23
2022-08-29T21:19:29.985Z,55.49
2022-08-29T21:21:58.689Z,55.30
2022-08-29T21:24:27.277Z,55.36
2022-08-29T21:26:55.035Z,55.88
2022-08-29T21:29:30.822Z,55.84
2022-08-29T21:31:58.540Z,55.81
2022-08-29T21:34:27.800Z,55.44
2022-08-29T21:36:55.557Z,55.52
2022-08-29T21:39:28.408Z,55.70
2022-08-29T21:41:57.732Z,55.66
2022-08-29T21:44:27.929Z,55.36
2022-08-29T21:46:55.660Z,55.61
2022-08-29T21:49:23.452Z,55.63
2022-08-29T21:51:52.615Z,55.94
2022-08-29T21:54:20.373Z,55.95
2022-08-29T21:56:49.299Z,55.97
2022-08-29T21:59:17.719Z,55.75
2022-08-29T22:01:46.844Z,55.67
2022-08-29T22:04:28.202Z,55.40
2022-08-29T22:06:59.616Z,55.62
2022-08-29T22:09:28.200Z,55.78
2022-08-29T22:11:56.111Z,56.15
2022-08-29T22:14:44.766Z,56.52
2022-08-29T22:17:11.635Z,56.48
2022-08-29T22:19:39.872Z,56.57
2022-08-29T22:22:10.409Z,56.76
2022-08-29T22:24:41.440Z,56.77
2022-08-29T22:27:09.584Z,56.73
2022-08-29T22:29:37.545Z,56.37
2022-08-29T22:32:05.707Z,56.74
2022-08-29T22:34:33.379Z,56.72
2022-08-29T22:37:01.614Z,56.90
2022-08-29T22:39:30.634Z,57.25
2022-08-29T22:41:58.328Z,57.53
2022-08-29T22:47:13.963Z,57.61
2022-08-29T22:49:41.815Z,57.58
2022-08-29T22:52:11.528Z,57.87
2022-08-29T22:54:40.888Z,57.82
2022-08-29T22:57:10.112Z,57.47
2022-08-29T22:59:39.233Z,57.72
2022-08-29T23:02:07.476Z,57.69
2022-08-29T23:04:36.537Z,58.00
2022-08-29T23:07:05.135Z,58.08
2022-08-29T23:09:35.138Z,58.04
2022-08-29T23:12:05.854Z,58.06
2022-08-29T23:14:35.589Z,57.98
2022-08-29T23:17:03.321Z,57.74
2022-08-29T23:19:31.097Z,58.35
2022-08-29T23:21:58.813Z,58.44
2022-08-29T23:24:29.938Z,58.16
2022-08-29T23:26:57.699Z,58.43
2022-08-29T23:29:27.365Z,58.55
2022-08-29T23:31:55.209Z,58.63
2022-08-29T23:34:24.022Z,58.70
2022-08-29T23:36:51.762Z,58.36
2022-08-29T23:39:19.539Z,58.58
2022-08-29T23:41:47.385Z,58.79
2022-08-29T23:44:15.570Z,58.69
2022-08-29T23:46:44.748Z,58.74
2022-08-29T23:49:12.716Z,58.79
2022-08-29T23:51:40.500Z,58.78
2022-08-29T23:54:08.186Z,58.88
2022-08-29T23:56:35.871Z,59.14
2022-08-29T23:59:03.617Z,58.98
